EGQL

RAF Leuchars Airport

St. Andrews, United Kingdom
METAR EGQL 232150Z 25022KT 9999 FEW017 SCT043 10/07 Q1001 BLU
Observed Flight Rules
Apr-23 @ 21:50 UTC (46 minutes ago) Visual Flight Rules
Wind Visibility Clouds
250° at 22 knots 10,000+ meters
  • Few at 1,700' AGL
  • Scattered at 4,300' AGL
Temperatures Readings
Current 10°C / 50°F
Dewpoint 7°C / 45°F
Humidity 82%
Altimeter 29.56" Hg
Pressure 1001 hPa
Elevation 12
METAR EGQL 232150Z 25022KT 9999 FEW017 SCT043 10/07 Q1001 BLU
Observed Flight Rules
Apr-23 @ 21:50 UTC
(46 minutes ago)
VFR
Wind Visibility
250° at 22 knots 10,000+ meters
Clouds
  • Few at 1,700' AGL
  • Scattered at 4,300' AGL
Temperature Dewpoint
10°C / 50°F 7°C / 45°F
Humidity Altimeter Pressure
82% 29.56" Hg 1001 hPa